Southwest Florida International Airport
KRSW : now visible

Airfield :











YOU CAN JOIN US ON...

 
LOGIN :

Register | Disclaimer

   EN    FR    IT 

 









Legend :    VFR   Marginal VFR   IFR   Intensive IFR   Very Intensive IFR
Visi :
Ceiling :
>= 8 km
>= 3000ft
5 to 8 km
1000 to 3000 ft
1500m to 5 km
500 to 1000 ft
800 to 1500m
200 to 500 ft
< 800m
< 200 ft
Symbols :   Thunderstorms  Fog  Heavy snow  Heavy precipitations  Wind > 20 kt






- Airport Elevation : 30 ft
- IATA code : RSW


KRSW - Southwest Florida International

CURRENT METAR :
  • 131653Z 06014KT 10SM BKN037 23/17 A3005 RMK AO2 SLP172 T02280172

EXPIRED METARs :
  • 131553Z 04011KT 10SM OVC031 20/16 A3007 RMK AO2 SLP180 T02000161
  • 131523Z 04010KT 10SM FEW014 OVC030 19/16 A3007 RMK AO2 T01940156
  • 131453Z 05012KT 10SM FEW013 SCT023 OVC029 18/16 A3007 RMK AO2 SLP181 T01830156 51023

TAF KRSW
Valid from the 13 at 12:00 until the 14 at 12:00 UTC


131120Z 1312/1412 03010G15KT P6SM SCT010 BKN030
TEMPO 1312/1316 4SM BR BKN008 OVC030
FM131600 05011G19KT P6SM SCT020 BKN030
FM132200 05011KT P6SM SCT025 BKN030
FM140400 06010KT P6SM SCT030 BKN040



MET'MAP, your aeronautical weather chart ! - Copyright ORBIFLY December 2007 - Disclaimer

ORBIFLY MET'MAP TEAM :

Programming & Development : Alexandra Zaïnal
Concept & Development : Baudouin d'Aumeries
Co-Development & Prog : Marc-Olivier Méhu
Technical & hardware support : Manuel Goepfert

Contact : metmap@orbifly.com




SOURCES & CREDITS :

   NOAA       Earth
Advisory